createdAt,value
2023-05-21T00:03:42.051Z,5.10
2023-05-21T00:07:45.904Z,5.18
2023-05-21T00:11:48.051Z,6.30
2023-05-21T00:15:50.205Z,4.47
2023-05-21T00:19:52.573Z,4.60
2023-05-21T00:23:56.689Z,4.70
2023-05-21T00:27:58.838Z,4.72
2023-05-21T00:32:01.174Z,4.93
2023-05-21T00:36:03.616Z,5.03
2023-05-21T00:40:08.865Z,5.28
2023-05-21T00:44:14.199Z,4.65
2023-05-21T00:48:16.395Z,5.10
2023-05-21T00:52:23.175Z,4.55
2023-05-21T00:56:27.356Z,4.40
2023-05-21T01:00:29.647Z,4.93
2023-05-21T01:04:32.281Z,4.18
2023-05-21T01:08:38.180Z,4.10
2023-05-21T01:12:44.053Z,4.65
2023-05-21T01:16:49.415Z,4.60
2023-05-21T01:20:52.550Z,4.65
2023-05-21T01:24:55.610Z,4.45
2023-05-21T01:28:59.618Z,4.90
2023-05-21T01:33:22.043Z,4.95
2023-05-21T01:37:32.890Z,5.15
2023-05-21T01:41:38.961Z,6.00
2023-05-21T01:45:43.022Z,5.18
2023-05-21T01:53:47.965Z,4.95
2023-05-21T01:57:56.349Z,5.82
2023-05-21T02:01:58.847Z,4.97
2023-05-21T02:06:01.505Z,6.55
2023-05-21T02:10:04.718Z,5.88
2023-05-21T02:14:11.248Z,6.28
2023-05-21T02:18:17.047Z,7.20
2023-05-21T02:22:21.056Z,5.93
2023-05-21T02:26:24.912Z,6.18
2023-05-21T02:30:27.353Z,5.93
2023-05-21T02:34:33.072Z,7.57
2023-05-21T02:38:35.201Z,6.00
2023-05-21T02:42:39.821Z,7.65
2023-05-21T02:46:42.894Z,6.20
2023-05-21T02:50:45.203Z,6.47
2023-05-21T02:54:47.491Z,5.30
2023-05-21T02:58:49.557Z,6.35
2023-05-21T03:02:52.084Z,6.75
2023-05-21T03:06:55.443Z,6.03
2023-05-21T03:10:57.948Z,5.25
2023-05-21T03:15:00.029Z,6.85
2023-05-21T03:19:03.671Z,5.77
2023-05-21T03:23:06.072Z,5.78
2023-05-21T03:27:08.951Z,6.13
2023-05-21T03:31:11.688Z,6.35
2023-05-21T03:35:13.801Z,6.07
2023-05-21T03:39:16.033Z,6.40
2023-05-21T03:43:18.389Z,5.38
2023-05-21T03:47:21.545Z,5.55
2023-05-21T03:51:25.046Z,5.50
2023-05-21T03:55:27.475Z,5.53
2023-05-21T03:59:29.561Z,6.15
2023-05-21T04:03:36.685Z,6.10
2023-05-21T04:07:42.360Z,6.22
2023-05-21T04:11:44.486Z,5.95
2023-05-21T04:15:46.897Z,5.32
2023-05-21T04:19:49.216Z,6.10
2023-05-21T04:23:54.008Z,6.25
2023-05-21T04:28:04.387Z,6.68
2023-05-21T04:32:07.483Z,6.47
2023-05-21T04:36:10.630Z,7.18
2023-05-21T04:40:18.573Z,7.13
2023-05-21T04:44:21.000Z,6.95
2023-05-21T04:48:24.931Z,7.07
2023-05-21T04:52:27.309Z,7.15
2023-05-21T04:56:29.686Z,7.50
2023-05-21T05:00:32.216Z,6.95
2023-05-21T05:04:34.720Z,7.20
2023-05-21T05:08:37.007Z,7.80
2023-05-21T05:12:39.658Z,8.30
2023-05-21T05:16:43.321Z,8.35
2023-05-21T05:20:46.832Z,8.57
2023-05-21T05:24:49.790Z,9.38
2023-05-21T05:28:52.349Z,8.63
2023-05-21T05:32:54.655Z,10.07
2023-05-21T05:36:57.381Z,10.15
2023-05-21T05:40:59.696Z,10.43
2023-05-21T05:45:02.796Z,9.02
2023-05-21T05:49:06.023Z,10.77
2023-05-21T05:53:08.469Z,9.57
2023-05-21T05:57:11.548Z,10.52
2023-05-21T06:01:14.545Z,10.47
2023-05-21T06:05:17.325Z,11.27
2023-05-21T06:09:19.642Z,11.27
2023-05-21T06:13:22.783Z,9.97
2023-05-21T06:17:25.263Z,9.95
2023-05-21T06:21:28.921Z,9.85
2023-05-21T06:25:32.128Z,8.80
2023-05-21T06:29:34.640Z,8.33
2023-05-21T06:33:38.280Z,9.18
2023-05-21T06:37:41.152Z,8.10
2023-05-21T06:41:43.841Z,7.53
2023-05-21T06:46:04.483Z,8.45
2023-05-21T06:50:14.099Z,7.55
2023-05-21T06:54:16.844Z,8.68
2023-05-21T06:58:23.919Z,8.20
2023-05-21T07:02:29.186Z,8.77
2023-05-21T07:06:32.298Z,9.38
2023-05-21T07:10:35.263Z,11.33
2023-05-21T07:14:37.771Z,11.27
2023-05-21T07:18:40.109Z,9.60
2023-05-21T07:22:44.365Z,11.88
2023-05-21T07:26:49.032Z,10.80
2023-05-21T07:35:03.948Z,12.10
2023-05-21T07:39:08.281Z,11.23
2023-05-21T07:43:13.552Z,12.65
2023-05-21T07:47:16.967Z,14.60
2023-05-21T07:51:20.705Z,15.45
2023-05-21T07:55:24.252Z,12.93
2023-05-21T07:59:27.172Z,13.02
2023-05-21T08:03:33.427Z,12.90
2023-05-21T08:07:37.061Z,11.93
2023-05-21T08:11:39.385Z,11.75
2023-05-21T08:15:43.587Z,12.50
2023-05-21T08:19:47.130Z,12.77
2023-05-21T08:23:53.078Z,15.32
2023-05-21T08:27:56.607Z,15.63
2023-05-21T08:31:59.758Z,14.77
2023-05-21T08:36:02.187Z,15.20
2023-05-21T08:40:06.739Z,13.93
2023-05-21T08:44:14.097Z,14.38
2023-05-21T08:48:17.190Z,16.05
2023-05-21T08:52:21.770Z,15.02
2023-05-21T08:56:26.231Z,13.45
2023-05-21T09:00:30.550Z,15.10
2023-05-21T09:04:34.308Z,16.23
2023-05-21T09:08:41.749Z,14.05
2023-05-21T09:13:11.865Z,14.35
2023-05-21T09:17:15.304Z,12.70
2023-05-21T09:21:26.396Z,12.27
2023-05-21T09:25:33.004Z,14.02
2023-05-21T09:29:42.975Z,12.38
2023-05-21T09:33:48.449Z,11.75
2023-05-21T09:37:53.989Z,12.95
2023-05-21T09:41:59.645Z,10.23
2023-05-21T09:46:02.551Z,11.55
2023-05-21T09:50:09.894Z,11.20
2023-05-21T09:54:13.454Z,11.80
2023-05-21T09:58:16.074Z,11.38
2023-05-21T10:02:22.634Z,10.10
2023-05-21T10:06:27.406Z,10.73
2023-05-21T10:10:32.281Z,12.05
2023-05-21T10:14:36.227Z,10.68
2023-05-21T10:18:40.130Z,8.77
2023-05-21T10:22:42.384Z,10.68
2023-05-21T10:26:48.329Z,9.52
2023-05-21T10:30:52.941Z,8.95
2023-05-21T10:34:59.227Z,9.40
2023-05-21T10:39:03.515Z,8.73
2023-05-21T10:43:31.651Z,7.10
2023-05-21T10:47:43.462Z,8.90
2023-05-21T10:52:07.358Z,7.65
2023-05-21T11:00:32.770Z,7.93
2023-05-21T11:04:39.936Z,6.73
2023-05-21T11:08:48.152Z,6.07
2023-05-21T11:13:13.820Z,5.78
2023-05-21T11:17:38.912Z,5.00
2023-05-21T11:21:42.611Z,5.25
2023-05-21T11:25:54.594Z,6.07
2023-05-21T11:34:28.779Z,5.72
2023-05-21T11:38:31.822Z,7.43
2023-05-21T11:42:38.907Z,8.90
2023-05-21T11:46:41.122Z,10.80
2023-05-21T11:50:43.426Z,8.70
2023-05-21T11:54:51.818Z,10.48
2023-05-21T11:58:58.822Z,8.07
2023-05-21T12:03:03.601Z,7.03
2023-05-21T12:07:13.485Z,7.13
2023-05-21T12:11:16.127Z,6.65
2023-05-21T12:15:19.157Z,6.28
2023-05-21T12:25:34.328Z,6.80
2023-05-21T12:29:39.183Z,6.33
2023-05-21T12:33:45.532Z,6.57
2023-05-21T12:37:51.027Z,8.05
2023-05-21T12:41:56.675Z,7.05
2023-05-21T12:45:59.145Z,7.10
2023-05-21T12:50:03.364Z,7.07
2023-05-21T12:54:12.241Z,7.40
2023-05-21T12:58:14.753Z,8.40
2023-05-21T13:02:32.495Z,6.60
2023-05-21T13:06:44.317Z,6.28
2023-05-21T13:10:46.661Z,6.45
2023-05-21T13:14:55.086Z,6.22
2023-05-21T13:20:05.702Z,6.93
2023-05-21T13:24:32.640Z,6.18
2023-05-21T13:28:34.820Z,6.75
2023-05-21T13:32:41.175Z,6.82
2023-05-21T13:36:45.559Z,7.05
2023-05-21T13:40:50.802Z,7.70
2023-05-21T13:44:54.327Z,8.10
2023-05-21T13:48:56.626Z,5.93
2023-05-21T13:52:59.398Z,8.40
2023-05-21T13:57:03.510Z,7.07
2023-05-21T14:01:06.067Z,8.38
2023-05-21T14:09:11.951Z,7.50
2023-05-21T14:13:19.768Z,8.63
2023-05-21T14:17:22.634Z,8.50
2023-05-21T14:21:25.844Z,10.38
2023-05-21T14:25:28.414Z,7.95
2023-05-21T14:29:30.623Z,12.20
2023-05-21T14:33:33.998Z,10.50
2023-05-21T14:37:36.764Z,11.57
2023-05-21T14:41:40.203Z,12.67
2023-05-21T14:45:42.908Z,12.90
2023-05-21T14:49:46.271Z,11.90
2023-05-21T14:57:51.819Z,6.68
2023-05-21T15:01:54.106Z,7.93
2023-05-21T15:05:56.358Z,7.18
2023-05-21T15:09:58.724Z,6.82
2023-05-21T15:14:01.288Z,6.95
2023-05-21T15:18:05.011Z,9.88
2023-05-21T15:22:09.630Z,7.53
2023-05-21T15:26:31.020Z,7.03
2023-05-21T15:31:07.702Z,7.07
2023-05-21T15:35:10.396Z,12.20
2023-05-21T15:39:13.074Z,17.77
2023-05-21T15:43:15.709Z,17.17
2023-05-21T15:47:19.463Z,10.80
2023-05-21T15:51:23.206Z,8.45
2023-05-21T15:55:31.052Z,7.57
2023-05-21T15:59:34.933Z,9.68
2023-05-21T16:03:37.285Z,10.27
2023-05-21T16:07:39.573Z,10.97
2023-05-21T16:11:44.287Z,11.70
2023-05-21T16:15:50.611Z,11.70
2023-05-21T16:20:06.921Z,11.73
2023-05-21T16:24:09.228Z,11.60
2023-05-21T16:28:12.586Z,12.83
2023-05-21T16:32:15.185Z,11.00
2023-05-21T16:36:18.042Z,10.75
2023-05-21T16:40:25.477Z,10.05
2023-05-21T16:44:27.677Z,9.57
2023-05-21T16:48:30.615Z,8.93
2023-05-21T16:52:35.185Z,9.98
2023-05-21T17:00:40.087Z,11.20
2023-05-21T17:04:44.054Z,9.88
2023-05-21T17:08:47.608Z,10.88
2023-05-21T17:13:17.585Z,10.52
2023-05-21T17:17:30.491Z,11.20
2023-05-21T17:21:35.983Z,11.27
2023-05-21T17:25:44.421Z,10.32
2023-05-21T17:29:47.015Z,9.52
2023-05-21T17:33:50.162Z,9.68
2023-05-21T17:37:53.711Z,9.93
2023-05-21T17:41:57.207Z,8.00
2023-05-21T17:46:03.684Z,7.07
2023-05-21T17:50:08.670Z,7.70
2023-05-21T17:54:12.171Z,5.85
2023-05-21T17:58:18.382Z,8.88
2023-05-21T18:02:21.262Z,15.75
2023-05-21T18:06:23.557Z,16.20
2023-05-21T18:10:25.919Z,13.38
2023-05-21T18:14:31.170Z,7.28
2023-05-21T18:18:39.394Z,5.60
2023-05-21T18:22:44.633Z,5.63
2023-05-21T18:35:25.373Z,6.90
2023-05-21T18:39:28.364Z,6.75
2023-05-21T18:43:30.799Z,7.93
2023-05-21T18:47:33.663Z,9.95
2023-05-21T18:51:36.157Z,12.55
2023-05-21T18:55:38.513Z,14.65
2023-05-21T18:59:41.121Z,17.30
2023-05-21T19:03:44.448Z,17.65
2023-05-21T19:07:46.770Z,16.35
2023-05-21T19:11:49.928Z,16.95
2023-05-21T19:15:52.422Z,13.55
2023-05-21T19:19:58.701Z,11.15
2023-05-21T19:24:04.199Z,12.02
2023-05-21T19:28:08.049Z,9.57
2023-05-21T19:32:11.805Z,9.20
2023-05-21T19:36:14.942Z,7.50
2023-05-21T19:40:19.454Z,7.95
2023-05-21T19:44:25.111Z,7.22
2023-05-21T19:48:27.952Z,6.63
2023-05-21T19:52:30.354Z,7.43
2023-05-21T19:56:33.286Z,5.53
2023-05-21T20:00:37.794Z,6.88
2023-05-21T20:04:41.645Z,5.82
2023-05-21T20:08:47.040Z,6.40
2023-05-21T20:12:49.337Z,6.70
2023-05-21T20:16:53.746Z,6.10
2023-05-21T20:20:57.822Z,6.38
2023-05-21T20:25:25.174Z,6.63
2023-05-21T20:29:31.949Z,6.65
2023-05-21T20:33:39.941Z,7.00
2023-05-21T20:37:42.740Z,7.22
2023-05-21T20:46:09.600Z,7.47
2023-05-21T20:50:12.425Z,8.13
2023-05-21T20:54:14.885Z,7.97
2023-05-21T20:58:19.997Z,8.15
2023-05-21T21:02:23.453Z,8.40
2023-05-21T21:06:26.905Z,8.73
2023-05-21T21:10:30.044Z,8.82
2023-05-21T21:18:55.917Z,9.38
2023-05-21T21:23:00.711Z,9.95
2023-05-21T21:27:05.287Z,11.20
2023-05-21T21:31:09.904Z,11.23
2023-05-21T21:35:14.396Z,11.65
2023-05-21T21:39:19.589Z,12.38
2023-05-21T21:43:22.834Z,10.85
2023-05-21T21:47:25.577Z,10.93
2023-05-21T21:51:31.939Z,12.85
2023-05-21T21:55:45.416Z,11.05
2023-05-21T21:59:48.971Z,11.88
2023-05-21T22:03:51.876Z,12.55
2023-05-21T22:07:56.882Z,13.27
2023-05-21T22:12:07.852Z,13.68
2023-05-21T22:16:12.054Z,12.88
2023-05-21T22:20:15.388Z,13.63
2023-05-21T22:24:30.772Z,13.53
2023-05-21T22:28:33.929Z,13.70
2023-05-21T22:32:36.414Z,13.35
2023-05-21T22:36:39.782Z,15.05
2023-05-21T22:40:45.149Z,13.87
2023-05-21T22:44:54.227Z,13.57
2023-05-21T22:48:56.469Z,15.82
2023-05-21T22:52:59.254Z,13.55
2023-05-21T22:57:02.240Z,14.95
2023-05-21T23:01:04.533Z,15.30
2023-05-21T23:05:11.570Z,13.00
2023-05-21T23:09:20.922Z,10.13
2023-05-21T23:13:24.918Z,10.68
2023-05-21T23:17:36.360Z,9.85
2023-05-21T23:21:39.612Z,10.15
2023-05-21T23:25:42.508Z,9.93
2023-05-21T23:29:44.921Z,9.73
2023-05-21T23:33:47.248Z,9.15
2023-05-21T23:37:49.753Z,8.32
2023-05-21T23:41:52.457Z,10.45
2023-05-21T23:45:54.877Z,8.10
2023-05-21T23:49:58.330Z,9.20
2023-05-21T23:54:01.405Z,8.20
2023-05-21T23:58:04.267Z,7.97
